Terminal Aerodrome Forecast
Issued by NWS

Home | Current Version | Previous Version | Text Only | Print | Product List | Glossary On
Versions: 1 2 3 4 5 6 7 8 9 10 11 12 13 14 15 16 17 18 19 20 21 22 23 24 25 26 27 28 29 30 31 32 33 34
180
FTUS46 KOTX 121725
TAFSFF
TAF
KSFF 121725Z 1218/1318 VRB03KT P6SM FEW050 OVC100
     FM121900 17007KT P6SM VCSH SCT020 BKN080
     FM130300 20004KT 5SM -RA BR OVC040
     FM130600 23008KT P6SM VCSH BKN015 OVC030
     FM131100 23008G16KT P6SM OVC015=

USA.gov is the U.S. government's official web portal to all federal, state and local government web resources and services.